createdAt,value
2017-12-17T00:00:14.227Z,2.60
2017-12-17T00:02:41.693Z,2.60
2017-12-17T00:05:09.150Z,2.70
2017-12-17T00:07:36.616Z,2.70
2017-12-17T00:10:04.074Z,2.70
2017-12-17T00:12:31.528Z,2.80
2017-12-17T00:14:59.002Z,2.70
2017-12-17T00:17:26.467Z,2.70
2017-12-17T00:19:53.935Z,2.60
2017-12-17T00:22:21.394Z,2.70
2017-12-17T00:24:48.862Z,2.60
2017-12-17T00:27:16.552Z,2.50
2017-12-17T00:29:44.778Z,2.50
2017-12-17T00:32:12.228Z,2.50
2017-12-17T00:34:41.098Z,2.60
2017-12-17T00:37:09.223Z,2.60
2017-12-17T00:39:36.691Z,2.60
2017-12-17T00:42:05.623Z,2.60
2017-12-17T00:44:34.607Z,2.60
2017-12-17T00:47:02.079Z,2.70
2017-12-17T00:49:29.536Z,2.70
2017-12-17T00:51:56.996Z,2.70
2017-12-17T00:54:26.727Z,2.70
2017-12-17T00:56:54.968Z,2.60
2017-12-17T00:59:24.619Z,2.60
2017-12-17T01:01:53.983Z,2.60
2017-12-17T01:04:24.115Z,2.60
2017-12-17T01:06:51.645Z,2.60
2017-12-17T01:09:19.209Z,2.60
2017-12-17T01:11:47.711Z,2.50
2017-12-17T01:14:15.887Z,2.50
2017-12-17T01:16:45.564Z,2.50
2017-12-17T01:19:16.622Z,2.50
2017-12-17T01:21:44.256Z,2.50
2017-12-17T01:24:15.177Z,2.50
2017-12-17T01:26:44.072Z,2.50
2017-12-17T01:29:11.850Z,2.50
2017-12-17T01:31:39.478Z,2.50
2017-12-17T01:34:08.589Z,2.50
2017-12-17T01:36:39.324Z,2.50
2017-12-17T01:39:08.150Z,2.50
2017-12-17T01:41:35.603Z,2.50
2017-12-17T01:44:03.064Z,2.50
2017-12-17T01:46:30.534Z,2.50
2017-12-17T01:48:58.002Z,2.50
2017-12-17T01:51:25.467Z,2.60
2017-12-17T01:53:54.432Z,2.50
2017-12-17T01:56:21.896Z,2.50
2017-12-17T01:58:49.352Z,2.50
2017-12-17T02:01:16.823Z,2.40
2017-12-17T02:03:44.276Z,2.50
2017-12-17T02:06:11.739Z,2.50
2017-12-17T02:08:39.191Z,2.50
2017-12-17T02:11:06.658Z,2.50
2017-12-17T02:13:34.112Z,2.50
2017-12-17T02:16:01.571Z,2.50
2017-12-17T02:18:29.026Z,2.50
2017-12-17T02:20:56.487Z,2.50
2017-12-17T02:23:23.940Z,2.50
2017-12-17T02:25:51.400Z,2.50
2017-12-17T02:30:52.560Z,2.40
2017-12-17T02:33:20.012Z,2.30
2017-12-17T02:35:47.844Z,2.30
2017-12-17T02:38:17.050Z,2.30
2017-12-17T02:40:44.516Z,2.30
2017-12-17T02:43:11.972Z,2.30
2017-12-17T02:45:39.435Z,2.20
2017-12-17T02:48:07.659Z,2.20
2017-12-17T02:50:35.897Z,2.30
2017-12-17T02:53:03.347Z,2.30
2017-12-17T02:55:30.800Z,2.30
2017-12-17T02:57:58.281Z,2.30
2017-12-17T03:00:25.737Z,2.30
2017-12-17T03:02:53.216Z,2.40
2017-12-17T03:05:21.441Z,2.30
2017-12-17T03:07:48.907Z,2.30
2017-12-17T03:10:16.507Z,2.30
2017-12-17T03:12:44.735Z,2.30
2017-12-17T03:15:12.199Z,2.20
2017-12-17T03:17:39.670Z,2.20
2017-12-17T03:20:07.123Z,2.30
2017-12-17T03:22:34.608Z,2.20
2017-12-17T03:25:02.840Z,2.30
2017-12-17T03:27:30.304Z,2.30
2017-12-17T03:29:57.759Z,2.30
2017-12-17T03:32:25.220Z,2.20
2017-12-17T03:34:52.678Z,2.20
2017-12-17T03:37:20.140Z,2.20
2017-12-17T03:39:47.608Z,2.20
2017-12-17T03:42:15.075Z,2.10
2017-12-17T03:44:43.299Z,2.10
2017-12-17T03:47:10.765Z,2.10
2017-12-17T03:49:38.224Z,2.10
2017-12-17T03:52:05.689Z,2.10
2017-12-17T03:54:33.147Z,2.00
2017-12-17T03:57:00.618Z,2.00
2017-12-17T03:59:28.074Z,2.00
2017-12-17T04:01:55.540Z,2.00
2017-12-17T04:04:23.008Z,2.00
2017-12-17T04:06:51.280Z,2.00
2017-12-17T04:09:19.503Z,2.00
2017-12-17T04:11:46.955Z,2.00
2017-12-17T04:14:14.428Z,1.90
2017-12-17T04:16:41.892Z,1.90
2017-12-17T04:19:09.356Z,1.90
2017-12-17T04:21:36.817Z,2.00
2017-12-17T04:24:04.284Z,2.00
2017-12-17T04:26:31.774Z,2.00
2017-12-17T04:28:59.980Z,1.90
2017-12-17T04:31:27.755Z,1.90
2017-12-17T04:33:55.228Z,1.90
2017-12-17T04:36:22.685Z,2.00
2017-12-17T04:38:50.156Z,2.00
2017-12-17T04:41:17.615Z,2.00
2017-12-17T04:43:45.848Z,2.00
2017-12-17T04:46:13.309Z,2.00
2017-12-17T04:48:40.788Z,2.10
2017-12-17T04:51:08.239Z,2.00
2017-12-17T04:53:35.711Z,2.00
2017-12-17T04:56:03.168Z,2.00
2017-12-17T04:58:30.640Z,2.00
2017-12-17T05:00:58.857Z,1.90
2017-12-17T05:03:26.324Z,1.90
2017-12-17T05:05:53.784Z,1.90
2017-12-17T05:08:21.251Z,1.90
2017-12-17T05:10:49.679Z,1.90
2017-12-17T05:13:17.152Z,1.90
2017-12-17T05:15:44.604Z,1.80
2017-12-17T05:18:12.072Z,1.80
2017-12-17T05:20:39.527Z,1.90
2017-12-17T05:23:07.025Z,1.90
2017-12-17T05:25:34.483Z,1.80
2017-12-17T05:28:01.943Z,1.90
2017-12-17T05:30:29.403Z,1.80
2017-12-17T05:32:56.867Z,1.80
2017-12-17T05:35:24.332Z,1.80
2017-12-17T05:37:52.551Z,1.80
2017-12-17T05:40:20.023Z,1.80
2017-12-17T05:42:47.487Z,1.90
2017-12-17T05:45:14.956Z,1.90
2017-12-17T05:47:42.412Z,1.90
2017-12-17T05:50:09.880Z,1.90
2017-12-17T05:52:37.339Z,1.90
2017-12-17T05:55:04.803Z,1.90
2017-12-17T05:57:33.033Z,1.80
2017-12-17T06:00:00.497Z,1.80
2017-12-17T06:02:27.956Z,1.80
2017-12-17T06:04:55.423Z,1.70
2017-12-17T06:07:22.892Z,1.70
2017-12-17T06:09:50.363Z,1.70
2017-12-17T06:12:18.589Z,1.60
2017-12-17T06:14:46.059Z,1.70
2017-12-17T06:17:13.511Z,1.70
2017-12-17T06:19:41.016Z,1.60
2017-12-17T06:22:08.453Z,1.60
2017-12-17T06:24:35.968Z,1.70
2017-12-17T06:27:04.158Z,1.80
2017-12-17T06:29:31.633Z,1.80
2017-12-17T06:31:59.092Z,1.80
2017-12-17T06:34:26.564Z,1.80
2017-12-17T06:36:54.789Z,1.70
2017-12-17T06:39:22.246Z,1.70
2017-12-17T06:41:49.716Z,1.80
2017-12-17T06:44:17.176Z,1.80
2017-12-17T06:46:44.648Z,1.80
2017-12-17T06:49:12.112Z,1.80
2017-12-17T06:51:39.580Z,1.70
2017-12-17T06:54:07.804Z,1.70
2017-12-17T06:56:35.272Z,1.70
2017-12-17T06:59:02.723Z,1.80
2017-12-17T07:01:30.200Z,1.90
2017-12-17T07:03:57.656Z,2.00
2017-12-17T07:06:25.123Z,1.90
2017-12-17T07:08:52.588Z,1.90
2017-12-17T07:11:20.056Z,1.90
2017-12-17T07:13:49.484Z,1.80
2017-12-17T07:16:16.952Z,1.80
2017-12-17T07:18:44.412Z,1.70
2017-12-17T07:21:11.887Z,1.70
2017-12-17T07:23:39.356Z,1.60
2017-12-17T07:26:06.824Z,1.60
2017-12-17T07:28:34.289Z,1.60
2017-12-17T07:31:01.755Z,1.60
2017-12-17T07:33:29.980Z,1.60
2017-12-17T07:35:57.448Z,1.60
2017-12-17T07:38:24.904Z,1.60
2017-12-17T07:40:52.375Z,1.60
2017-12-17T07:43:19.828Z,1.50
2017-12-17T07:45:47.327Z,1.50
2017-12-17T07:48:14.760Z,1.40
2017-12-17T07:50:42.228Z,1.40
2017-12-17T07:53:10.456Z,1.40
2017-12-17T07:55:37.924Z,1.40
2017-12-17T07:58:05.388Z,1.40
2017-12-17T08:00:32.846Z,1.40
2017-12-17T08:03:00.320Z,1.50
2017-12-17T08:05:27.781Z,1.50
2017-12-17T08:07:55.248Z,1.60
2017-12-17T08:10:23.474Z,1.70
2017-12-17T08:12:50.947Z,1.70
2017-12-17T08:15:19.175Z,1.70
2017-12-17T08:17:46.647Z,1.70
2017-12-17T08:20:14.104Z,1.80
2017-12-17T08:22:41.580Z,1.80
2017-12-17T08:25:09.040Z,1.80
2017-12-17T08:27:36.507Z,1.70
2017-12-17T08:30:03.964Z,1.60
2017-12-17T08:32:31.431Z,1.70
2017-12-17T08:34:58.887Z,1.70
2017-12-17T08:37:26.363Z,1.70
2017-12-17T08:39:54.603Z,1.80
2017-12-17T08:42:22.063Z,1.80
2017-12-17T08:44:49.585Z,1.80
2017-12-17T08:47:17.044Z,1.80
2017-12-17T08:49:44.508Z,1.80
2017-12-17T08:52:11.985Z,1.90
2017-12-17T08:54:39.451Z,1.90
2017-12-17T08:57:06.925Z,2.00
2017-12-17T08:59:34.841Z,2.30
2017-12-17T09:02:02.312Z,2.60
2017-12-17T09:04:30.572Z,2.60
2017-12-17T09:06:58.052Z,2.70
2017-12-17T09:09:25.516Z,2.80
2017-12-17T09:11:52.980Z,2.90
2017-12-17T09:14:20.445Z,2.80
2017-12-17T09:16:47.902Z,2.80
2017-12-17T09:19:15.371Z,2.80
2017-12-17T09:21:42.829Z,2.70
2017-12-17T09:24:10.299Z,2.60
2017-12-17T09:26:38.519Z,2.60
2017-12-17T09:29:05.987Z,2.60
2017-12-17T09:31:34.257Z,2.60
2017-12-17T09:34:01.732Z,2.60
2017-12-17T09:36:29.184Z,2.60
2017-12-17T09:38:56.678Z,2.70
2017-12-17T09:41:24.121Z,2.70
2017-12-17T09:43:51.590Z,2.90
2017-12-17T09:46:20.612Z,2.80
2017-12-17T09:48:48.080Z,2.80
2017-12-17T09:51:15.535Z,2.80
2017-12-17T09:53:43.007Z,2.90
2017-12-17T09:56:10.469Z,2.70
2017-12-17T09:58:37.940Z,2.80
2017-12-17T10:01:05.396Z,2.90
2017-12-17T10:03:32.862Z,2.90
2017-12-17T10:06:00.325Z,2.90
2017-12-17T10:08:27.793Z,2.90
2017-12-17T10:10:56.018Z,2.90
2017-12-17T10:13:23.488Z,2.90
2017-12-17T10:15:50.948Z,3.00
2017-12-17T10:18:18.424Z,3.20
2017-12-17T10:20:45.890Z,3.20
2017-12-17T10:23:13.350Z,3.10
2017-12-17T10:25:40.812Z,3.20
2017-12-17T10:28:09.041Z,3.50
2017-12-17T10:30:36.504Z,3.50
2017-12-17T10:33:03.960Z,3.50
2017-12-17T10:35:31.431Z,3.60
2017-12-17T10:37:58.883Z,3.50
2017-12-17T10:40:26.346Z,3.60
2017-12-17T10:42:53.803Z,3.50
2017-12-17T10:45:21.274Z,3.60
2017-12-17T10:47:48.741Z,3.60
2017-12-17T10:50:16.976Z,3.80
2017-12-17T10:52:44.432Z,3.80
2017-12-17T10:55:11.903Z,4.30
2017-12-17T10:57:40.119Z,4.30
2017-12-17T11:00:07.598Z,4.30
2017-12-17T11:02:35.061Z,4.10
2017-12-17T11:05:02.529Z,4.10
2017-12-17T11:07:29.987Z,4.10
2017-12-17T11:09:57.464Z,4.10
2017-12-17T11:12:24.926Z,4.00
2017-12-17T11:14:52.383Z,4.10
2017-12-17T11:17:19.844Z,4.20
2017-12-17T11:19:47.322Z,4.30
2017-12-17T11:22:15.545Z,4.00
2017-12-17T11:24:43.016Z,4.00
2017-12-17T11:27:10.467Z,4.00
2017-12-17T11:29:37.949Z,3.90
2017-12-17T11:32:05.463Z,3.80
2017-12-17T11:34:32.931Z,3.90
2017-12-17T11:37:00.440Z,3.90
2017-12-17T11:39:27.851Z,3.90
2017-12-17T11:41:55.337Z,4.00
2017-12-17T11:44:22.791Z,4.10
2017-12-17T11:46:50.261Z,3.90
2017-12-17T11:49:18.484Z,4.00
2017-12-17T11:51:45.951Z,4.00
2017-12-17T11:54:13.408Z,4.10
2017-12-17T11:56:40.882Z,4.10
2017-12-17T11:59:08.344Z,3.90
2017-12-17T12:01:35.820Z,3.80
2017-12-17T12:04:04.039Z,3.70
2017-12-17T12:06:31.510Z,3.70
2017-12-17T12:08:59.311Z,3.80
2017-12-17T12:11:26.776Z,3.70
2017-12-17T12:13:54.233Z,3.60
2017-12-17T12:16:22.472Z,3.60
2017-12-17T12:18:49.928Z,3.60
2017-12-17T12:21:17.408Z,3.50
2017-12-17T12:23:44.866Z,3.60
2017-12-17T12:26:12.343Z,3.80
2017-12-17T12:28:40.564Z,3.80
2017-12-17T12:31:08.029Z,3.80
2017-12-17T12:33:35.490Z,3.60
2017-12-17T12:36:02.956Z,3.60
2017-12-17T12:38:30.415Z,3.60
2017-12-17T12:40:57.888Z,3.50
2017-12-17T12:43:26.112Z,3.60
2017-12-17T12:45:53.580Z,3.50
2017-12-17T12:48:21.033Z,3.50
2017-12-17T12:50:48.504Z,3.60
2017-12-17T12:53:15.984Z,3.70
2017-12-17T12:55:44.215Z,3.60
2017-12-17T12:58:11.689Z,3.60
2017-12-17T13:00:39.151Z,3.60
2017-12-17T13:03:06.619Z,3.70
2017-12-17T13:05:34.076Z,3.80
2017-12-17T13:08:01.555Z,3.80
2017-12-17T13:10:29.792Z,3.80
2017-12-17T13:12:57.257Z,3.80
2017-12-17T13:15:24.711Z,3.70
2017-12-17T13:17:52.181Z,3.80
2017-12-17T13:20:19.643Z,3.90
2017-12-17T13:22:47.120Z,3.90
2017-12-17T13:25:15.347Z,3.80
2017-12-17T13:27:42.824Z,3.80
2017-12-17T13:30:10.276Z,3.80
2017-12-17T13:32:37.747Z,3.80
2017-12-17T13:35:05.212Z,3.80
2017-12-17T13:37:33.447Z,3.50
2017-12-17T13:40:00.912Z,3.50
2017-12-17T13:42:28.388Z,3.60
2017-12-17T13:44:55.843Z,3.60
2017-12-17T13:47:23.315Z,3.60
2017-12-17T13:49:51.545Z,3.50
2017-12-17T13:52:19.015Z,3.50
2017-12-17T13:54:46.476Z,3.40
2017-12-17T13:57:13.975Z,3.50
2017-12-17T13:59:42.214Z,3.50
2017-12-17T14:02:09.675Z,3.50
2017-12-17T14:04:37.135Z,3.60
2017-12-17T14:07:04.603Z,3.70
2017-12-17T14:09:32.839Z,3.60
2017-12-17T14:12:00.300Z,3.60
2017-12-17T14:14:27.763Z,3.60
2017-12-17T14:16:55.224Z,3.50
2017-12-17T14:19:22.688Z,3.50
2017-12-17T14:21:50.148Z,3.50
2017-12-17T14:24:17.617Z,3.60
2017-12-17T14:26:45.072Z,3.70
2017-12-17T14:29:12.544Z,3.60
2017-12-17T14:31:40.776Z,3.50
2017-12-17T14:34:08.248Z,3.50
2017-12-17T14:36:35.699Z,3.50
2017-12-17T14:39:05.075Z,3.40
2017-12-17T14:41:32.539Z,3.40
2017-12-17T14:44:00.008Z,3.30
2017-12-17T14:46:27.476Z,3.40
2017-12-17T14:48:54.931Z,3.40
2017-12-17T14:51:22.391Z,3.30
2017-12-17T14:53:49.863Z,3.30
2017-12-17T14:56:17.328Z,3.80
2017-12-17T14:58:45.564Z,4.20
2017-12-17T15:01:13.023Z,4.20
2017-12-17T15:03:40.552Z,4.20
2017-12-17T15:06:07.966Z,4.40
2017-12-17T15:08:35.436Z,4.60
2017-12-17T15:11:03.664Z,4.20
2017-12-17T15:13:32.211Z,4.10
2017-12-17T15:15:59.684Z,3.80
2017-12-17T15:18:27.134Z,3.60
2017-12-17T15:20:54.605Z,3.50
2017-12-17T15:23:22.067Z,3.50
2017-12-17T15:25:49.535Z,3.30
2017-12-17T15:28:16.992Z,3.20
2017-12-17T15:30:44.464Z,3.10
2017-12-17T15:33:11.927Z,3.10
2017-12-17T15:35:39.396Z,3.10
2017-12-17T15:38:07.631Z,3.10
2017-12-17T15:40:35.101Z,3.10
2017-12-17T15:43:02.557Z,3.00
2017-12-17T15:45:30.023Z,3.00
2017-12-17T15:47:57.482Z,2.90
2017-12-17T15:50:24.960Z,2.80
2017-12-17T15:52:53.179Z,2.80
2017-12-17T15:55:20.651Z,2.80
2017-12-17T15:57:48.107Z,2.80
2017-12-17T16:00:15.581Z,2.80
2017-12-17T16:02:43.100Z,2.80
2017-12-17T16:05:10.572Z,2.80
2017-12-17T16:07:38.031Z,2.80
2017-12-17T16:10:05.504Z,2.80
2017-12-17T16:12:32.968Z,2.90
2017-12-17T16:15:05.371Z,2.90
2017-12-17T16:17:33.613Z,2.90
2017-12-17T16:20:01.089Z,2.90
2017-12-17T16:22:29.316Z,2.90
2017-12-17T16:24:56.789Z,3.00
2017-12-17T16:27:24.271Z,3.00
2017-12-17T16:29:51.744Z,2.90
2017-12-17T16:32:19.971Z,3.00
2017-12-17T16:34:47.431Z,3.00
2017-12-17T16:37:14.899Z,3.00
2017-12-17T16:39:42.356Z,3.10
2017-12-17T16:42:09.828Z,3.00
2017-12-17T16:44:37.280Z,2.90
2017-12-17T16:47:04.754Z,2.90
2017-12-17T16:49:32.212Z,2.90
2017-12-17T16:52:00.451Z,2.80
2017-12-17T16:54:27.912Z,2.80
2017-12-17T16:56:55.385Z,2.80
2017-12-17T16:59:22.845Z,2.80
2017-12-17T17:01:50.315Z,2.80
2017-12-17T17:04:18.540Z,2.80
2017-12-17T17:06:46.017Z,2.80
2017-12-17T17:09:13.472Z,2.90
2017-12-17T17:11:40.939Z,2.90
2017-12-17T17:14:08.403Z,2.90
2017-12-17T17:16:35.873Z,2.90
2017-12-17T17:19:04.095Z,2.80
2017-12-17T17:21:31.568Z,2.80
2017-12-17T17:23:59.024Z,2.90
2017-12-17T17:26:26.503Z,2.90
2017-12-17T17:28:53.961Z,2.90
2017-12-17T17:31:21.429Z,2.80
2017-12-17T17:33:48.896Z,2.80
2017-12-17T17:36:17.132Z,2.80
2017-12-17T17:38:44.592Z,2.80
2017-12-17T17:41:12.072Z,2.80
2017-12-17T17:43:39.535Z,2.70
2017-12-17T17:46:07.779Z,2.70
2017-12-17T17:48:35.234Z,2.70
2017-12-17T17:51:02.712Z,2.60
2017-12-17T17:53:30.172Z,2.60
2017-12-17T17:55:57.640Z,2.50
2017-12-17T17:58:25.108Z,2.50
2017-12-17T18:00:53.335Z,2.40
2017-12-17T18:03:20.808Z,2.50
2017-12-17T18:05:48.264Z,2.40
2017-12-17T18:08:15.736Z,2.50
2017-12-17T18:10:43.193Z,2.50
2017-12-17T18:13:11.470Z,2.50
2017-12-17T18:15:38.928Z,2.50
2017-12-17T18:18:06.396Z,2.50
2017-12-17T18:20:34.624Z,2.50
2017-12-17T18:23:02.103Z,2.50
2017-12-17T18:25:29.567Z,2.50
2017-12-17T18:27:57.048Z,2.50
2017-12-17T18:30:25.278Z,2.50
2017-12-17T18:32:52.742Z,2.50
2017-12-17T18:35:20.210Z,2.60
2017-12-17T18:37:47.682Z,2.50
2017-12-17T18:40:15.905Z,2.50
2017-12-17T18:42:43.376Z,2.50
2017-12-17T18:45:10.840Z,2.40
2017-12-17T18:47:38.309Z,2.40
2017-12-17T18:50:05.781Z,2.50
2017-12-17T18:52:34.020Z,2.50
2017-12-17T18:55:01.483Z,2.40
2017-12-17T18:57:28.961Z,2.50
2017-12-17T18:59:56.415Z,2.50
2017-12-17T19:02:23.904Z,2.50
2017-12-17T19:04:51.369Z,2.50
2017-12-17T19:07:18.836Z,2.50
2017-12-17T19:09:46.311Z,2.60
2017-12-17T19:12:13.771Z,2.60
2017-12-17T19:14:41.243Z,2.70
2017-12-17T19:17:08.705Z,2.60
2017-12-17T19:19:36.175Z,2.60
2017-12-17T19:22:03.638Z,2.60
2017-12-17T19:24:31.112Z,2.60
2017-12-17T19:27:00.021Z,2.60
2017-12-17T19:29:27.488Z,2.60
2017-12-17T19:31:54.952Z,2.60
2017-12-17T19:34:22.424Z,2.70
2017-12-17T19:36:49.884Z,2.70
2017-12-17T19:39:17.355Z,2.70
2017-12-17T19:41:44.819Z,2.70
2017-12-17T19:44:12.301Z,2.70
2017-12-17T19:46:40.519Z,2.80
2017-12-17T19:49:07.995Z,2.80
2017-12-17T19:51:35.456Z,2.70
2017-12-17T19:54:02.932Z,2.80
2017-12-17T19:56:31.155Z,2.80
2017-12-17T19:58:58.638Z,2.80
2017-12-17T20:01:26.103Z,2.80
2017-12-17T20:03:53.584Z,2.80
2017-12-17T20:06:21.812Z,2.90
2017-12-17T20:08:49.287Z,2.90
2017-12-17T20:11:16.754Z,2.80
2017-12-17T20:13:44.224Z,2.90
2017-12-17T20:16:12.455Z,2.80
2017-12-17T20:18:39.939Z,2.80
2017-12-17T20:21:07.411Z,2.90
2017-12-17T20:23:34.871Z,2.90
2017-12-17T20:26:03.115Z,3.00
2017-12-17T20:28:30.575Z,3.00
2017-12-17T20:30:58.048Z,3.00
2017-12-17T20:33:25.512Z,2.90
2017-12-17T20:35:53.753Z,2.90
2017-12-17T20:38:21.213Z,2.90
2017-12-17T20:40:48.690Z,2.90
2017-12-17T20:43:16.153Z,3.00
2017-12-17T20:45:43.624Z,3.00
2017-12-17T20:48:11.860Z,3.10
2017-12-17T20:50:39.327Z,3.00
2017-12-17T20:53:06.791Z,3.10
2017-12-17T20:55:34.278Z,3.10
2017-12-17T20:58:02.507Z,3.10
2017-12-17T21:00:29.980Z,3.20
2017-12-17T21:02:57.435Z,3.20
2017-12-17T21:05:24.903Z,3.20
2017-12-17T21:07:52.367Z,3.20
2017-12-17T21:10:20.608Z,3.20
2017-12-17T21:12:48.068Z,3.10
2017-12-17T21:15:15.540Z,3.10
2017-12-17T21:17:42.999Z,3.20
2017-12-17T21:20:10.476Z,3.20
2017-12-17T21:22:38.708Z,3.20
2017-12-17T21:25:06.180Z,3.20
2017-12-17T21:27:33.642Z,3.20
2017-12-17T21:30:01.120Z,3.10
2017-12-17T21:32:29.347Z,3.20
2017-12-17T21:34:57.596Z,3.20
2017-12-17T21:37:25.051Z,3.10
2017-12-17T21:39:52.516Z,3.20
2017-12-17T21:42:19.984Z,3.20
2017-12-17T21:44:47.452Z,3.20
2017-12-17T21:47:14.923Z,3.20
2017-12-17T21:49:42.388Z,3.30
2017-12-17T21:52:09.872Z,3.20
2017-12-17T21:54:38.099Z,3.20
2017-12-17T21:57:05.576Z,3.20
2017-12-17T21:59:33.036Z,3.20
2017-12-17T22:02:00.512Z,3.30
2017-12-17T22:04:28.735Z,3.20
2017-12-17T22:06:56.203Z,3.20
2017-12-17T22:09:23.665Z,3.30
2017-12-17T22:11:51.136Z,3.30
2017-12-17T22:14:18.591Z,3.30
2017-12-17T22:16:46.073Z,3.30
2017-12-17T22:19:14.298Z,3.30
2017-12-17T22:21:41.772Z,3.30
2017-12-17T22:24:09.232Z,3.20
2017-12-17T22:26:36.710Z,3.20
2017-12-17T22:29:04.172Z,3.30
2017-12-17T22:31:32.411Z,3.20
2017-12-17T22:33:59.871Z,3.20
2017-12-17T22:36:27.346Z,3.20
2017-12-17T22:38:54.812Z,3.20
2017-12-17T22:41:22.284Z,3.30
2017-12-17T22:43:50.511Z,3.30
2017-12-17T22:46:17.984Z,3.20
2017-12-17T22:48:45.447Z,3.20
2017-12-17T22:51:12.907Z,3.20
2017-12-17T22:53:40.384Z,3.20
2017-12-17T22:56:08.624Z,3.20
2017-12-17T22:58:36.091Z,3.20
2017-12-17T23:01:03.560Z,3.20
2017-12-17T23:03:31.024Z,3.30
2017-12-17T23:05:58.483Z,3.30
2017-12-17T23:08:25.957Z,3.20
2017-12-17T23:10:53.415Z,3.20
2017-12-17T23:13:20.887Z,3.20
2017-12-17T23:15:48.352Z,3.10
2017-12-17T23:18:15.828Z,3.20
2017-12-17T23:20:43.286Z,3.20
2017-12-17T23:23:10.755Z,3.20
2017-12-17T23:25:38.224Z,3.10
2017-12-17T23:28:05.691Z,3.20
2017-12-17T23:30:37.772Z,3.20
2017-12-17T23:33:06.011Z,3.20
2017-12-17T23:35:33.463Z,3.20
2017-12-17T23:38:00.940Z,3.10
2017-12-17T23:40:28.395Z,3.10
2017-12-17T23:42:55.872Z,3.10
2017-12-17T23:45:24.100Z,3.20
2017-12-17T23:47:51.572Z,3.20
2017-12-17T23:50:19.032Z,3.20
2017-12-17T23:52:46.507Z,3.30
2017-12-17T23:55:14.767Z,3.30
2017-12-17T23:57:42.222Z,3.30
